»·PEaware :: UAL7 TNCM-KDEN

UAL7 :: TNCM-KDEN

FLIGHT INFORMATION

Flight Status: Arrived
Operator:
United Airlines
More flights by this operator :: More flights under this callsign
Pilot: Scott L. (17677)
Aircraft: BOEING 767-300
(B763)
More flights by this aircraft type
Origin: TNCM Princess Juliana Intl
Netherlands Antilles
Destination: KDEN Denver Intl
United States
More flights between these airports :: More routes between these airports
Route: +BOPAT2 JUICE B520 STT L577 ANTEX/N0459F180 L577 LRN/N0482F340 UW24 KODIX UL212 POBIN/N0475F360 UL212 URLAM UBA J2 UHA UR522 ALURU UL674 KEHLI A766 KELPP/N0470F380 A766 SBI MAJKK KF15E ADM J52 LBL HALEN NIIXX1
File this flight plan on PilotEdge
Remarks: RMK / SIMBRIEF
Altitude:
(Current/Filed)
34,000ft
Speed:
(Current/Filed)
482kts
Departed: 16-Aug-20 04:37 PM
Arrived: 16-Aug-20 05:55 PM
Distance/Time
Traveled:
2512nm/1:18
Distance/Time
To Go:
Arrived

Flight Plot

Page will automatically refresh every two minutes.

Flight plan parsing failed; only flown route is shown


Map Options




Map Legend


Flown Route
Filed Route
Departure Airport
Arrival Airport
Navaid (VOR, NDB)
Fix

Horizontal Profiles

Position Reports

Time Latitude Longitude Heading Altitude Ground
Speed
16-Aug-20 16:36 34.870275 -78.998493 226 34036ft 447kts
16-Aug-20 16:37 33.250276 -80.467475 227 34035ft 454kts
16-Aug-20 16:38 32.407624 -82.640895 262 34008ft 455kts
16-Aug-20 16:39 32.795144 -85.029979 286 34127ft 468kts
16-Aug-20 16:40 33.410215 -87.396421 273 34078ft 456kts
16-Aug-20 16:41 32.886115 -89.776437 236 34113ft 469kts
16-Aug-20 16:41 31.951150 -91.524530 252 33824ft 450kts
16-Aug-20 16:43 32.011819 -94.284143 278 34092ft 451kts
16-Aug-20 16:44 31.838971 -95.970782 241 34015ft 475kts
16-Aug-20 16:44 31.772566 -96.079074 241 34004ft 476kts
16-Aug-20 16:46 31.746375 -96.254009 284 34013ft 463kts
16-Aug-20 16:47 31.812513 -96.381587 321 34013ft 458kts
16-Aug-20 16:47 31.911225 -96.431447 352 34000ft 462kts
16-Aug-20 16:48 32.038400 -96.399462 28 34002ft 473kts
16-Aug-20 16:49 32.148171 -96.314190 30 34003ft 474kts
16-Aug-20 16:50 32.259407 -96.227264 30 34002ft 473kts
16-Aug-20 16:51 32.370906 -96.140017 30 34006ft 471kts
16-Aug-20 16:52 32.483636 -96.056038 20 34028ft 466kts
16-Aug-20 16:53 32.611359 -96.044477 343 34030ft 456kts
16-Aug-20 16:54 32.714136 -96.127647 307 34034ft 455kts
16-Aug-20 16:55 32.788820 -96.251577 320 34038ft 459kts
16-Aug-20 16:56 32.891944 -96.346389 323 34094ft 458kts
16-Aug-20 16:57 32.996202 -96.438641 324 34132ft 459kts
16-Aug-20 16:58 33.100158 -96.530595 324 34150ft 459kts
16-Aug-20 16:59 33.205345 -96.622775 324 34154ft 459kts
16-Aug-20 17:00 33.309302 -96.715511 323 34161ft 466kts
16-Aug-20 17:01 33.415194 -96.808964 324 34157ft 461kts
16-Aug-20 17:02 33.520130 -96.902374 323 34138ft 463kts
16-Aug-20 17:03 33.624982 -96.996480 323 34166ft 463kts
16-Aug-20 17:04 33.729230 -97.092377 323 34162ft 463kts
16-Aug-20 17:05 33.834977 -97.188352 323 34159ft 471kts
16-Aug-20 17:06 33.941280 -97.284734 324 34163ft 472kts
16-Aug-20 17:07 34.048767 -97.381390 323 34065ft 472kts
16-Aug-20 17:08 34.152413 -97.478510 322 34068ft 471kts
16-Aug-20 17:09 34.257781 -97.577015 323 34068ft 469kts
16-Aug-20 17:10 34.363606 -97.674341 323 34116ft 476kts
16-Aug-20 17:11 34.471382 -97.773626 323 34109ft 475kts
16-Aug-20 17:12 34.577915 -97.872086 323 34108ft 472kts
16-Aug-20 17:13 34.684326 -97.970770 323 34106ft 471kts
16-Aug-20 17:14 34.790271 -98.069334 323 34076ft 475kts
16-Aug-20 17:15 35.155671 -98.606708 309 34089ft 474kts
16-Aug-20 17:16 35.821722 -99.622751 313 34088ft 469kts
16-Aug-20 17:17 36.565540 -100.532571 317 34220ft 465kts
16-Aug-20 17:18 37.311245 -101.460445 315 34213ft 453kts
16-Aug-20 17:19 37.473195 -101.667280 315 34209ft 460kts
16-Aug-20 17:20 37.563774 -101.784960 315 34212ft 460kts
16-Aug-20 17:21 37.653370 -101.901845 315 34210ft 460kts
16-Aug-20 17:22 37.744366 -102.021013 315 34209ft 460kts
16-Aug-20 17:23 37.832180 -102.136485 315 34199ft 443kts
16-Aug-20 17:24 37.918383 -102.253046 315 34192ft 443kts
16-Aug-20 17:25 38.004638 -102.369247 315 34168ft 442kts
16-Aug-20 17:26 38.090024 -102.485268 315 34165ft 441kts
16-Aug-20 17:27 38.175778 -102.602487 315 34174ft 442kts
16-Aug-20 17:28 38.259115 -102.716900 315 34183ft 415kts
16-Aug-20 17:29 38.339779 -102.828442 315 34175ft 418kts
16-Aug-20 17:30 38.421893 -102.941583 315 33300ft 447kts
16-Aug-20 17:31 38.509954 -103.063674 315 31952ft 447kts
16-Aug-20 17:32 38.591247 -103.176845 315 30665ft 411kts
16-Aug-20 17:33 38.668151 -103.284286 314 28450ft 401kts
16-Aug-20 17:34 38.743884 -103.390509 314 26389ft 389kts
16-Aug-20 17:35 38.817562 -103.494177 313 24757ft 380kts
16-Aug-20 17:36 38.888477 -103.596362 313 23011ft 373kts
16-Aug-20 17:37 38.958966 -103.695938 312 21331ft 363kts
16-Aug-20 17:38 39.028308 -103.793519 312 19745ft 358kts
16-Aug-20 17:39 39.095776 -103.889627 311 18970ft 353kts
16-Aug-20 17:40 39.163109 -103.986714 311 18359ft 352kts
16-Aug-20 17:41 39.228711 -104.082165 310 17004ft 345kts
16-Aug-20 17:42 39.291726 -104.176885 305 15758ft 326kts
16-Aug-20 17:43 39.317514 -104.288057 282 14981ft 285kts
16-Aug-20 17:44 39.333967 -104.390275 282 13961ft 282kts
16-Aug-20 17:45 39.349902 -104.491268 281 13120ft 274kts
16-Aug-20 17:46 39.370362 -104.592918 303 12393ft 306kts
16-Aug-20 17:47 39.447906 -104.649350 358 11414ft 343kts
16-Aug-20 17:48 39.546078 -104.648284 1 9437ft 313kts
16-Aug-20 17:49 39.625990 -104.647306 2 8985ft 254kts
16-Aug-20 17:50 39.694823 -104.645652 8 8064ft 249kts
16-Aug-20 17:51 39.755219 -104.642343 1 6630ft 190kts
16-Aug-20 17:52 39.806070 -104.641918 1 5835ft 175kts
16-Aug-20 17:53 39.853568 -104.641348 0 5445ft 113kts
16-Aug-20 17:54 39.864011 -104.642715 265 5445ft 0kts
16-Aug-20 17:55 39.864077 -104.643208 323 5445ft 6kts
16-Aug-20 17:56 39.864906 -104.648070 271 5445ft 32kts
16-Aug-20 17:57 39.864193 -104.663413 172 5445ft 30kts
16-Aug-20 17:58 39.857406 -104.663545 181 5445ft 21kts
16-Aug-20 17:59 39.852846 -104.667262 267 5445ft 20kts
16-Aug-20 18:00 39.852940 -104.676016 308 5445ft 4kts
16-Aug-20 18:01 39.853294 -104.676101 357 5445ft 0kts

Navigation Log

Ident Type
Flight plan parsing failed, navigation log unavailable